Time;durP1;ratioP1;P1;durP2;ratioP2;P2;SDS_P1;SDS_P2;PMS_P1;PMS_P2;Temp;Humidity;BMP_temperature;BMP_pressure;BME280_temperature;BME280_humidity;BME280_pressure;Samples;Min_cycle;Max_cycle;Signal;HPM_P1;HPM_P2
2022/12/12 00:01:54;;;;;;;36.77;24.73;;;;;;;;;;5079991;28;20213;-69
2022/12/12 00:04:20;;;;;;;40.63;26.17;;;;;;;;;;5096816;28;20656;-69
2022/12/12 00:06:46;;;;;;;39.07;27.00;;;;;;;;;;5096809;28;20427;-69
2022/12/12 00:09:12;;;;;;;41.33;27.33;;;;;;;;;;5078582;28;20585;-69
2022/12/12 00:11:38;;;;;;;38.83;25.73;;;;;;;;;;5096526;28;20183;-69
2022/12/12 00:14:04;;;;;;;41.90;26.23;;;;;;;;;;5078458;28;20472;-69
2022/12/12 00:16:30;;;;;;;40.80;26.20;;;;;;;;;;5078129;28;20431;-68
2022/12/12 00:18:56;;;;;;;37.17;25.63;;;;;;;;;;5096224;28;20181;-69
2022/12/12 00:21:24;;;;;;;42.00;27.27;;;;;;;;;;5097878;28;20842;-69
2022/12/12 00:23:50;;;;;;;39.70;26.47;;;;;;;;;;5079021;28;20189;-69
2022/12/12 00:26:19;;;;;;;43.53;27.37;;;;;;;;;;5078363;28;20456;-69
2022/12/12 00:28:45;;;;;;;43.73;27.63;;;;;;;;;;5077817;28;20434;-69
2022/12/12 00:31:11;;;;;;;44.60;27.03;;;;;;;;;;5096119;28;20419;-69
2022/12/12 00:33:38;;;;;;;44.97;27.30;;;;;;;;;;5096166;28;20411;-69
2022/12/12 00:36:04;;;;;;;42.07;27.83;;;;;;;;;;5095665;28;20224;-69
2022/12/12 00:38:30;;;;;;;44.43;28.83;;;;;;;;;;5095930;28;20500;-69
2022/12/12 00:40:56;;;;;;;39.63;27.10;;;;;;;;;;5095853;28;20407;-69
2022/12/12 00:43:23;;;;;;;40.90;26.23;;;;;;;;;;5078000;28;20234;-69
2022/12/12 00:45:49;;;;;;;43.67;28.13;;;;;;;;;;5077550;28;20530;-69
2022/12/12 00:48:15;;;;;;;43.40;27.47;;;;;;;;;;5095843;28;20314;-69
2022/12/12 00:50:41;;;;;;;45.07;28.43;;;;;;;;;;5079590;28;20407;-70
2022/12/12 00:53:07;;;;;;;48.80;30.93;;;;;;;;;;5079109;28;20419;-70
2022/12/12 00:55:33;;;;;;;49.87;28.27;;;;;;;;;;5077348;28;20205;-69
2022/12/12 00:57:59;;;;;;;48.57;29.13;;;;;;;;;;5095640;28;20204;-69
2022/12/12 01:00:25;;;;;;;47.30;27.93;;;;;;;;;;5078474;28;20272;-68
2022/12/12 01:02:51;;;;;;;46.87;28.93;;;;;;;;;;5095529;28;20462;-70
2022/12/12 01:05:17;;;;;;;46.33;27.87;;;;;;;;;;5095601;28;20407;-69
2022/12/12 01:07:43;;;;;;;44.73;28.50;;;;;;;;;;5076959;28;20181;-69
2022/12/12 01:10:09;;;;;;;44.20;28.33;;;;;;;;;;5095219;28;20399;-69
2022/12/12 01:12:35;;;;;;;45.40;27.73;;;;;;;;;;5077207;28;20614;-69
2022/12/12 01:15:02;;;;;;;47.63;28.67;;;;;;;;;;5076999;28;20498;-69
2022/12/12 01:17:28;;;;;;;44.63;27.97;;;;;;;;;;5095050;28;20457;-69
2022/12/12 01:19:54;;;;;;;45.97;29.17;;;;;;;;;;5077000;28;20498;-69
2022/12/12 01:22:22;;;;;;;43.40;27.73;;;;;;;;;;5094965;28;20506;-69
2022/12/12 01:24:48;;;;;;;42.87;26.93;;;;;;;;;;5094882;28;20598;-69
2022/12/12 01:27:14;;;;;;;44.13;27.97;;;;;;;;;;5094738;28;20423;-69
2022/12/12 01:29:40;;;;;;;43.90;27.17;;;;;;;;;;5095080;28;20256;-69
2022/12/12 01:32:06;;;;;;;47.37;28.97;;;;;;;;;;5094706;28;20447;-69
2022/12/12 01:34:32;;;;;;;44.73;27.87;;;;;;;;;;5076571;28;20191;-69
2022/12/12 01:36:57;;;;;;;40.87;27.77;;;;;;;;;;5076459;28;20278;-68
2022/12/12 01:39:23;;;;;;;46.20;26.83;;;;;;;;;;5094808;28;20260;-69
2022/12/12 01:41:49;;;;;;;52.13;27.90;;;;;;;;;;5096692;28;20201;-69
2022/12/12 01:44:34;;;;;;;41.17;26.87;;;;;;;;;;5095227;28;20182;-69
2022/12/12 01:47:00;;;;;;;48.73;28.93;;;;;;;;;;5076209;28;20204;-69
2022/12/12 01:49:26;;;;;;;44.77;27.93;;;;;;;;;;5095061;28;20403;-69
2022/12/12 01:51:55;;;;;;;43.57;27.87;;;;;;;;;;5095466;28;20181;-69
2022/12/12 01:54:25;;;;;;;44.00;27.37;;;;;;;;;;5077671;28;20411;-69
2022/12/12 01:56:53;;;;;;;50.20;28.10;;;;;;;;;;5077762;28;20453;-68
2022/12/12 01:59:20;;;;;;;46.27;28.83;;;;;;;;;;5095995;28;20754;-68
2022/12/12 02:01:46;;;;;;;46.57;28.03;;;;;;;;;;5076751;28;20494;-68
2022/12/12 02:04:14;;;;;;;45.57;27.23;;;;;;;;;;5095196;28;20438;-69
2022/12/12 02:06:40;;;;;;;45.33;29.40;;;;;;;;;;5076616;28;20965;-69
2022/12/12 02:09:08;;;;;;;47.43;28.63;;;;;;;;;;5095562;28;20416;-69
2022/12/12 02:11:35;;;;;;;48.63;28.83;;;;;;;;;;5077955;28;20411;-69
2022/12/12 02:14:01;;;;;;;45.97;28.37;;;;;;;;;;5099412;28;20886;-69
2022/12/12 02:16:27;;;;;;;47.33;29.47;;;;;;;;;;5080878;28;20427;-69
2022/12/12 02:19:12;;;;;;;49.80;29.57;;;;;;;;;;5101060;28;20184;-69
2022/12/12 02:21:50;;;;;;;49.70;29.93;;;;;;;;;;5079026;28;20204;-69
2022/12/12 02:24:30;;;;;;;46.20;29.60;;;;;;;;;;5094802;28;20384;-69
2022/12/12 02:27:14;;;;;;;46.60;29.57;;;;;;;;;;5094739;28;20422;-69
2022/12/12 02:29:59;;;;;;;50.47;30.97;;;;;;;;;;5076975;28;20406;-69
2022/12/12 02:32:25;;;;;;;53.93;32.10;;;;;;;;;;5077472;28;20782;-69
2022/12/12 02:34:55;;;;;;;55.70;31.20;;;;;;;;;;5076568;28;20423;-69
2022/12/12 02:37:44;;;;;;;54.67;30.53;;;;;;;;;;5076195;28;20263;-69
2022/12/12 02:40:25;;;;;;;54.00;30.50;;;;;;;;;;5094574;28;20411;-69
2022/12/12 02:43:10;;;;;;;56.50;31.67;;;;;;;;;;5075905;28;20492;-69
2022/12/12 02:45:35;;;;;;;53.47;30.13;;;;;;;;;;5095011;28;20427;-69
2022/12/12 02:48:09;;;;;;;53.63;31.57;;;;;;;;;;5094645;28;20411;-69
2022/12/12 02:50:35;;;;;;;57.40;31.33;;;;;;;;;;5095031;28;20177;-68
2022/12/12 02:53:00;;;;;;;55.73;32.30;;;;;;;;;;5076573;28;20451;-69
2022/12/12 02:55:26;;;;;;;53.07;31.30;;;;;;;;;;5076477;28;20204;-69
2022/12/12 02:57:54;;;;;;;56.87;31.80;;;;;;;;;;5076423;28;20183;-70
2022/12/12 03:00:20;;;;;;;54.13;32.00;;;;;;;;;;5095073;28;20181;-69
2022/12/12 03:02:49;;;;;;;52.07;30.60;;;;;;;;;;5094678;28;20469;-70
2022/12/12 03:08:18;;;;;;;57.53;31.20;;;;;;;;;;5094271;28;20433;-69
2022/12/12 03:10:55;;;;;;;51.17;31.90;;;;;;;;;;5076151;28;20404;-69
2022/12/12 03:13:31;;;;;;;59.70;31.97;;;;;;;;;;5094255;28;20448;-69
2022/12/12 03:16:12;;;;;;;58.10;33.17;;;;;;;;;;5097286;28;20423;-68
2022/12/12 03:18:52;;;;;;;58.93;33.70;;;;;;;;;;5079830;28;20410;-69
2022/12/12 03:21:24;;;;;;;59.23;31.73;;;;;;;;;;5081056;28;20512;-69
2022/12/12 03:23:53;;;;;;;56.50;31.00;;;;;;;;;;5079640;28;20794;-69
2022/12/12 03:26:30;;;;;;;50.87;31.67;;;;;;;;;;5097491;28;20435;-69
2022/12/12 03:29:22;;;;;;;54.50;30.80;;;;;;;;;;5079247;28;20418;-69
2022/12/12 03:31:52;;;;;;;49.80;30.53;;;;;;;;;;5056519;28;20547;-69
2022/12/12 03:34:19;;;;;;;57.03;32.03;;;;;;;;;;5079129;28;20427;-69
2022/12/12 03:36:51;;;;;;;51.20;29.87;;;;;;;;;;5078761;28;20475;-69
2022/12/12 03:39:26;;;;;;;48.13;29.03;;;;;;;;;;5080217;28;20419;-69
2022/12/12 03:42:18;;;;;;;50.77;30.00;;;;;;;;;;5079880;28;20457;-69
2022/12/12 03:44:50;;;;;;;54.73;30.90;;;;;;;;;;5076524;28;20495;-69
2022/12/12 03:47:19;;;;;;;54.73;32.63;;;;;;;;;;5078781;28;20439;-69
2022/12/12 03:49:54;;;;;;;51.70;32.13;;;;;;;;;;5078909;28;20423;-69
2022/12/12 03:52:30;;;;;;;50.93;30.67;;;;;;;;;;5078886;28;20483;-69
2022/12/12 03:55:19;;;;;;;51.67;30.33;;;;;;;;;;5111018;22;20486;-69
2022/12/12 03:57:54;;;;;;;53.93;31.23;;;;;;;;;;5100966;28;20407;-70
2022/12/12 04:00:20;;;;;;;50.10;30.37;;;;;;;;;;5083002;28;20941;-70
2022/12/12 04:03:05;;;;;;;49.83;30.80;;;;;;;;;;5082334;28;20458;-70
2022/12/12 04:08:33;;;;;;;54.80;30.30;;;;;;;;;;5099466;28;20382;-71
2022/12/12 04:14:13;;;;;;;47.63;30.47;;;;;;;;;;5099183;28;20874;-71
2022/12/12 04:16:42;;;;;;;51.07;31.23;;;;;;;;;;5080732;28;20434;-71
2022/12/12 04:19:10;;;;;;;49.67;31.20;;;;;;;;;;5080926;28;20775;-71
2022/12/12 04:24:28;;;;;;;49.63;31.03;;;;;;;;;;5100004;28;20463;-71
2022/12/12 04:27:00;;;;;;;48.83;30.83;;;;;;;;;;5081423;28;20446;-71
2022/12/12 04:29:33;;;;;;;52.97;31.90;;;;;;;;;;5081906;28;20423;-70
2022/12/12 04:32:11;;;;;;;52.00;32.13;;;;;;;;;;5082020;28;20411;-71
2022/12/12 04:34:53;;;;;;;47.03;29.73;;;;;;;;;;5100309;28;20427;-72
2022/12/12 04:37:37;;;;;;;56.77;32.00;;;;;;;;;;5100648;28;20407;-71
2022/12/12 04:40:05;;;;;;;49.23;31.17;;;;;;;;;;5100720;28;20450;-70
2022/12/12 04:42:33;;;;;;;51.97;31.23;;;;;;;;;;5082279;28;20481;-71
2022/12/12 04:45:06;;;;;;;49.87;30.50;;;;;;;;;;5083283;28;20438;-71
2022/12/12 04:47:34;;;;;;;51.50;29.70;;;;;;;;;;5083408;28;20513;-71
2022/12/12 04:50:00;;;;;;;52.60;30.10;;;;;;;;;;5083551;28;20413;-69
2022/12/12 04:52:28;;;;;;;49.77;30.63;;;;;;;;;;5102708;28;20443;-71
2022/12/12 04:55:04;;;;;;;50.93;30.67;;;;;;;;;;5083299;28;20450;-71
2022/12/12 04:57:33;;;;;;;45.23;29.33;;;;;;;;;;5101289;28;20403;-72
2022/12/12 04:59:59;;;;;;;53.73;30.07;;;;;;;;;;5102173;28;20404;-72
2022/12/12 05:02:30;;;;;;;55.03;32.50;;;;;;;;;;5084467;28;20455;-71
2022/12/12 05:04:57;;;;;;;62.37;32.97;;;;;;;;;;5101426;28;20431;-72
2022/12/12 05:07:36;;;;;;;63.20;33.27;;;;;;;;;;5100846;28;20403;-72
2022/12/12 05:10:04;;;;;;;53.37;32.27;;;;;;;;;;5081882;28;20417;-71
2022/12/12 05:12:38;;;;;;;51.87;31.70;;;;;;;;;;5081235;28;20552;-71
2022/12/12 05:15:04;;;;;;;56.67;33.07;;;;;;;;;;5102113;28;20439;-72
2022/12/12 05:17:34;;;;;;;54.97;31.83;;;;;;;;;;5099185;28;20524;-73
2022/12/12 05:20:00;;;;;;;56.37;33.53;;;;;;;;;;5079505;28;20414;-72
2022/12/12 05:22:26;;;;;;;53.43;31.77;;;;;;;;;;5079490;28;20459;-72
2022/12/12 05:24:52;;;;;;;60.50;34.13;;;;;;;;;;5097605;28;20653;-72
2022/12/12 05:27:18;;;;;;;60.90;33.80;;;;;;;;;;5097338;28;20183;-73
2022/12/12 05:29:44;;;;;;;64.77;34.73;;;;;;;;;;5097227;28;20213;-73
2022/12/12 05:32:10;;;;;;;59.13;32.87;;;;;;;;;;5096263;28;20177;-72
2022/12/12 05:34:36;;;;;;;58.17;32.37;;;;;;;;;;5077989;28;20239;-72
2022/12/12 05:37:02;;;;;;;57.67;32.83;;;;;;;;;;5096124;28;20180;-74
2022/12/12 05:39:28;;;;;;;58.67;34.30;;;;;;;;;;5078381;28;20181;-72
2022/12/12 05:41:54;;;;;;;61.90;34.90;;;;;;;;;;5096627;28;20457;-73
2022/12/12 05:44:20;;;;;;;60.33;35.03;;;;;;;;;;5096787;28;20404;-73
2022/12/12 05:46:46;;;;;;;62.40;35.00;;;;;;;;;;5078726;28;20179;-73
2022/12/12 05:49:12;;;;;;;61.77;34.47;;;;;;;;;;5078941;28;20615;-73
2022/12/12 05:51:37;;;;;;;59.50;34.73;;;;;;;;;;5096410;28;20521;-72
2022/12/12 05:54:03;;;;;;;61.53;36.13;;;;;;;;;;5096307;28;20181;-73
2022/12/12 05:56:29;;;;;;;74.73;37.43;;;;;;;;;;5096044;28;20228;-72
2022/12/12 05:58:55;;;;;;;71.37;37.63;;;;;;;;;;5078491;28;20962;-72
2022/12/12 06:01:21;;;;;;;67.57;36.57;;;;;;;;;;5078259;28;20205;-73
2022/12/12 06:03:47;;;;;;;64.67;35.67;;;;;;;;;;5096391;28;20652;-73
2022/12/12 06:06:13;;;;;;;65.40;35.20;;;;;;;;;;5077791;28;20196;-72
2022/12/12 06:08:39;;;;;;;62.20;35.20;;;;;;;;;;5096116;28;20179;-72
2022/12/12 06:11:06;;;;;;;67.17;35.87;;;;;;;;;;5096605;28;20173;-72
2022/12/12 06:13:32;;;;;;;65.50;36.27;;;;;;;;;;5078232;28;20173;-72
2022/12/12 06:15:58;;;;;;;67.10;36.83;;;;;;;;;;5095408;28;20772;-72
2022/12/12 06:18:24;;;;;;;66.00;35.40;;;;;;;;;;5095885;28;20457;-72
2022/12/12 06:20:50;;;;;;;66.33;36.73;;;;;;;;;;5077948;28;20174;-73
2022/12/12 06:23:16;;;;;;;72.73;36.67;;;;;;;;;;5095924;28;20268;-72
2022/12/12 06:25:42;;;;;;;71.97;36.87;;;;;;;;;;5096196;28;20494;-72
2022/12/12 06:28:08;;;;;;;68.60;37.70;;;;;;;;;;5096538;28;20184;-72
2022/12/12 06:30:34;;;;;;;85.30;40.37;;;;;;;;;;5077967;28;20230;-73
2022/12/12 06:33:00;;;;;;;75.93;41.83;;;;;;;;;;5077877;28;20180;-73
2022/12/12 06:35:26;;;;;;;82.73;43.53;;;;;;;;;;5095898;28;20197;-72
2022/12/12 06:37:52;;;;;;;74.77;41.57;;;;;;;;;;5078010;28;20181;-72
2022/12/12 06:40:18;;;;;;;81.27;40.07;;;;;;;;;;5077301;28;20219;-72
2022/12/12 06:42:44;;;;;;;78.33;40.60;;;;;;;;;;5095197;28;20206;-72
2022/12/12 06:45:10;;;;;;;78.17;41.70;;;;;;;;;;5095354;28;20421;-72
2022/12/12 06:47:36;;;;;;;76.30;42.40;;;;;;;;;;5077895;28;20408;-72
2022/12/12 06:50:02;;;;;;;80.27;42.80;;;;;;;;;;5098122;28;20399;-72
2022/12/12 06:52:28;;;;;;;80.00;42.50;;;;;;;;;;5082164;28;20330;-71
2022/12/12 06:54:54;;;;;;;69.57;41.20;;;;;;;;;;5082030;28;20522;-72
2022/12/12 06:57:20;;;;;;;80.07;40.63;;;;;;;;;;5082518;28;20180;-73
2022/12/12 06:59:49;;;;;;;74.57;40.17;;;;;;;;;;5082844;28;20249;-72
2022/12/12 07:02:14;;;;;;;69.87;39.90;;;;;;;;;;5081994;28;20208;-73
2022/12/12 07:04:40;;;;;;;70.03;38.27;;;;;;;;;;5099747;28;20425;-72
2022/12/12 07:07:06;;;;;;;70.80;37.80;;;;;;;;;;5082121;28;20268;-72
2022/12/12 07:09:32;;;;;;;71.70;38.73;;;;;;;;;;5099802;28;20184;-71
2022/12/12 07:11:58;;;;;;;74.17;36.97;;;;;;;;;;5099538;28;20269;-72
2022/12/12 07:14:24;;;;;;;66.90;36.83;;;;;;;;;;5081284;28;20450;-73
2022/12/12 07:16:50;;;;;;;67.93;36.93;;;;;;;;;;5081844;28;20417;-72
2022/12/12 07:19:16;;;;;;;72.43;38.10;;;;;;;;;;5100749;28;20186;-71
2022/12/12 07:21:42;;;;;;;67.03;35.93;;;;;;;;;;5082138;28;20208;-71
2022/12/12 07:24:08;;;;;;;70.50;37.37;;;;;;;;;;5080585;28;20412;-72
2022/12/12 07:26:34;;;;;;;75.53;38.33;;;;;;;;;;5079931;28;20201;-72
2022/12/12 07:29:03;;;;;;;72.83;38.83;;;;;;;;;;5098372;28;20177;-72
2022/12/12 07:31:29;;;;;;;76.73;40.30;;;;;;;;;;5098534;28;20418;-72
2022/12/12 07:33:55;;;;;;;81.23;41.27;;;;;;;;;;5098550;28;20423;-70
2022/12/12 07:36:21;;;;;;;81.63;39.10;;;;;;;;;;5079956;28;20201;-72
2022/12/12 07:38:46;;;;;;;67.20;37.30;;;;;;;;;;5099250;28;20260;-72
2022/12/12 07:41:14;;;;;;;76.47;37.80;;;;;;;;;;5079752;28;20416;-73
2022/12/12 07:43:41;;;;;;;75.63;38.80;;;;;;;;;;5098763;28;20177;-73
2022/12/12 07:46:07;;;;;;;90.60;44.93;;;;;;;;;;5080653;28;20806;-73
2022/12/12 07:48:33;;;;;;;88.17;49.63;;;;;;;;;;5080488;28;20419;-72
2022/12/12 07:51:00;;;;;;;92.47;50.63;;;;;;;;;;5098392;28;20411;-73
2022/12/12 07:53:26;;;;;;;73.53;40.17;;;;;;;;;;5080362;28;20490;-72
2022/12/12 07:55:52;;;;;;;82.23;42.77;;;;;;;;;;5098717;28;20950;-72
2022/12/12 07:58:19;;;;;;;93.37;46.20;;;;;;;;;;5100079;28;20449;-73
2022/12/12 08:00:45;;;;;;;80.50;42.03;;;;;;;;;;5080565;28;20454;-73
2022/12/12 08:03:11;;;;;;;76.50;40.90;;;;;;;;;;5098468;28;20833;-73
2022/12/12 08:05:40;;;;;;;92.70;46.23;;;;;;;;;;5098711;28;20555;-74
2022/12/12 08:08:06;;;;;;;194.63;89.37;;;;;;;;;;5080631;28;20188;-73
2022/12/12 08:10:32;;;;;;;187.30;84.23;;;;;;;;;;5098866;28;20403;-74
2022/12/12 08:12:58;;;;;;;142.43;69.83;;;;;;;;;;5098808;28;20184;-73
2022/12/12 08:15:24;;;;;;;121.87;59.03;;;;;;;;;;5080446;28;20209;-72
2022/12/12 08:17:50;;;;;;;157.43;71.23;;;;;;;;;;5099262;28;20185;-74
2022/12/12 08:20:16;;;;;;;168.87;80.17;;;;;;;;;;5099571;28;20177;-73
2022/12/12 08:22:42;;;;;;;128.17;62.67;;;;;;;;;;5098505;28;20201;-74
2022/12/12 08:25:08;;;;;;;92.50;46.77;;;;;;;;;;5080649;28;20795;-74
2022/12/12 08:27:34;;;;;;;168.57;75.90;;;;;;;;;;5098667;28;20937;-74
2022/12/12 08:30:00;;;;;;;212.53;98.83;;;;;;;;;;5097890;28;20409;-73
2022/12/12 08:32:26;;;;;;;210.03;98.67;;;;;;;;;;5080330;28;20451;-74
2022/12/12 08:34:58;;;;;;;233.13;107.83;;;;;;;;;;5080048;28;20200;-74
2022/12/12 08:37:25;;;;;;;232.30;109.33;;;;;;;;;;5097914;28;20188;-73
2022/12/12 08:39:51;;;;;;;107.83;52.90;;;;;;;;;;5098197;28;20412;-74
2022/12/12 08:42:17;;;;;;;89.53;48.17;;;;;;;;;;5098278;28;20500;-74
2022/12/12 08:44:43;;;;;;;132.83;64.50;;;;;;;;;;5080288;28;20431;-73
2022/12/12 08:47:09;;;;;;;141.83;70.40;;;;;;;;;;5080613;28;20422;-73
2022/12/12 08:49:35;;;;;;;139.07;68.57;;;;;;;;;;5098825;28;20180;-73
2022/12/12 08:52:04;;;;;;;120.93;60.03;;;;;;;;;;5097868;28;20177;-77
2022/12/12 08:54:30;;;;;;;111.80;54.57;;;;;;;;;;5082254;28;20229;-75
2022/12/12 08:56:56;;;;;;;82.03;44.73;;;;;;;;;;5081077;28;20479;-74
2022/12/12 08:59:22;;;;;;;87.67;43.87;;;;;;;;;;5082457;28;20192;-72
2022/12/12 09:01:48;;;;;;;83.17;43.00;;;;;;;;;;5081723;28;20455;-74
2022/12/12 09:04:14;;;;;;;84.77;42.40;;;;;;;;;;5081227;28;20926;-73
2022/12/12 09:06:41;;;;;;;90.30;46.13;;;;;;;;;;5080692;28;20803;-74
2022/12/12 09:09:07;;;;;;;77.70;41.13;;;;;;;;;;5081927;28;20412;-74
2022/12/12 09:11:32;;;;;;;74.57;40.20;;;;;;;;;;5100095;28;20403;-74
2022/12/12 09:13:58;;;;;;;75.03;40.63;;;;;;;;;;5102339;28;20185;-74
2022/12/12 09:16:26;;;;;;;82.53;39.70;;;;;;;;;;5104880;28;20209;-74
2022/12/12 09:18:52;;;;;;;75.60;39.80;;;;;;;;;;5103229;28;20178;-74
2022/12/12 09:21:19;;;;;;;74.07;37.37;;;;;;;;;;5102747;28;20411;-74
2022/12/12 09:23:45;;;;;;;75.33;39.43;;;;;;;;;;5103500;28;20205;-72
2022/12/12 09:26:11;;;;;;;73.23;40.00;;;;;;;;;;5088378;28;20431;-74
2022/12/12 09:28:37;;;;;;;69.40;36.97;;;;;;;;;;5107607;28;20418;-72
2022/12/12 09:31:04;;;;;;;71.67;38.97;;;;;;;;;;5106608;28;20403;-73
2022/12/12 09:33:30;;;;;;;69.27;37.13;;;;;;;;;;5106610;28;20414;-76
2022/12/12 09:36:00;;;;;;;65.40;36.57;;;;;;;;;;5107322;28;20431;-73
2022/12/12 09:38:26;;;;;;;66.83;34.50;;;;;;;;;;5111693;28;20244;-74
2022/12/12 09:40:52;;;;;;;64.73;35.30;;;;;;;;;;5083052;28;20415;-74
2022/12/12 09:43:21;;;;;;;64.07;35.07;;;;;;;;;;5081019;28;20450;-72
2022/12/12 09:45:48;;;;;;;66.97;35.33;;;;;;;;;;5080885;28;20564;-74
2022/12/12 09:48:18;;;;;;;69.40;34.73;;;;;;;;;;5080687;28;20407;-72
2022/12/12 09:50:46;;;;;;;67.00;33.93;;;;;;;;;;5099075;28;20391;-73
2022/12/12 09:53:14;;;;;;;63.80;33.83;;;;;;;;;;5080727;28;20468;-73
2022/12/12 09:55:59;;;;;;;58.30;33.90;;;;;;;;;;5080433;28;20499;-72
2022/12/12 09:58:42;;;;;;;60.07;33.27;;;;;;;;;;5098783;28;20430;-74
2022/12/12 10:01:11;;;;;;;63.37;36.33;;;;;;;;;;5098167;28;20419;-74
2022/12/12 10:03:44;;;;;;;61.50;33.87;;;;;;;;;;5098614;28;20466;-73
2022/12/12 10:06:11;;;;;;;64.97;38.47;;;;;;;;;;5098033;28;20512;-73
2022/12/12 10:08:37;;;;;;;63.60;34.33;;;;;;;;;;5098963;28;20407;-73
2022/12/12 10:11:06;;;;;;;56.50;34.80;;;;;;;;;;5079766;28;20415;-72
2022/12/12 10:13:34;;;;;;;59.77;35.13;;;;;;;;;;5098100;28;20293;-73
2022/12/12 10:16:05;;;;;;;54.00;31.57;;;;;;;;;;5098757;28;20483;-73
2022/12/12 10:18:34;;;;;;;49.67;30.97;;;;;;;;;;5080038;28;20406;-74
2022/12/12 10:21:02;;;;;;;45.77;30.67;;;;;;;;;;5080331;28;20418;-74
2022/12/12 10:23:30;;;;;;;48.53;29.10;;;;;;;;;;5097853;28;20458;-74
2022/12/12 10:25:59;;;;;;;49.03;30.53;;;;;;;;;;5097909;28;20423;-73
2022/12/12 10:28:26;;;;;;;54.00;32.80;;;;;;;;;;5079704;28;21026;-76
2022/12/12 10:30:52;;;;;;;65.17;38.57;;;;;;;;;;5098305;28;20414;-73
2022/12/12 10:33:30;;;;;;;49.00;30.80;;;;;;;;;;5114422;22;20425;-69
2022/12/12 10:36:03;;;;;;;45.57;28.40;;;;;;;;;;5036743;28;20177;-71
2022/12/12 10:38:31;;;;;;;43.83;28.73;;;;;;;;;;5054164;28;20396;-71
2022/12/12 10:41:04;;;;;;;43.83;28.50;;;;;;;;;;5036342;28;20850;-71
2022/12/12 10:43:37;;;;;;;47.80;27.00;;;;;;;;;;5054081;28;20472;-72
2022/12/12 10:46:14;;;;;;;44.73;28.13;;;;;;;;;;5035944;28;20924;-71
2022/12/12 10:48:41;;;;;;;43.70;28.60;;;;;;;;;;5054596;28;20757;-70
2022/12/12 10:51:10;;;;;;;42.13;25.53;;;;;;;;;;5036397;28;20413;-70
2022/12/12 10:53:37;;;;;;;44.97;28.03;;;;;;;;;;5054513;28;20901;-70
2022/12/12 10:56:04;;;;;;;45.57;29.17;;;;;;;;;;5036339;28;20421;-71
2022/12/12 10:58:41;;;;;;;39.13;24.17;;;;;;;;;;5054343;28;20420;-70
2022/12/12 11:01:13;;;;;;;41.27;24.73;;;;;;;;;;5036435;28;20416;-70
2022/12/12 11:03:40;;;;;;;46.40;25.70;;;;;;;;;;5054496;28;20450;-70
2022/12/12 11:06:09;;;;;;;43.97;25.70;;;;;;;;;;5055823;28;20401;-70
2022/12/12 11:08:35;;;;;;;36.23;19.57;;;;;;;;;;5056117;28;20411;-70
2022/12/12 11:11:01;;;;;;;31.97;19.57;;;;;;;;;;5036991;28;20553;-70
2022/12/12 11:13:27;;;;;;;34.13;20.83;;;;;;;;;;5053209;28;20432;-69
2022/12/12 11:15:58;;;;;;;31.37;18.93;;;;;;;;;;5035280;28;20217;-69
2022/12/12 11:18:25;;;;;;;32.67;17.87;;;;;;;;;;5035239;28;20413;-68
2022/12/12 11:20:51;;;;;;;25.03;17.30;;;;;;;;;;5035324;28;20809;-70
2022/12/12 11:23:19;;;;;;;28.10;16.30;;;;;;;;;;5034983;28;20905;-69
2022/12/12 11:25:45;;;;;;;28.30;17.20;;;;;;;;;;5035338;28;20453;-69
2022/12/12 11:28:17;;;;;;;25.00;16.00;;;;;;;;;;5035916;28;20946;-69
2022/12/12 11:30:43;;;;;;;21.20;14.77;;;;;;;;;;5053285;28;20798;-69
2022/12/12 11:33:18;;;;;;;28.47;17.80;;;;;;;;;;5034984;28;20482;-69
2022/12/12 11:35:44;;;;;;;30.03;16.70;;;;;;;;;;5055252;28;20403;-69
2022/12/12 11:38:18;;;;;;;23.47;15.53;;;;;;;;;;5056511;28;20491;-70
2022/12/12 11:40:44;;;;;;;28.07;16.77;;;;;;;;;;5057493;28;20413;-73
2022/12/12 11:43:25;;;;;;;25.57;16.73;;;;;;;;;;5038786;28;20472;-72
2022/12/12 11:46:00;;;;;;;25.33;16.47;;;;;;;;;;5056773;28;20897;-71
2022/12/12 11:48:31;;;;;;;25.33;15.40;;;;;;;;;;5056605;28;20420;-72
2022/12/12 11:50:57;;;;;;;26.40;15.77;;;;;;;;;;5038796;28;20466;-72
2022/12/12 11:53:24;;;;;;;21.13;15.53;;;;;;;;;;5056399;28;20511;-68
2022/12/12 11:55:56;;;;;;;26.43;16.33;;;;;;;;;;5038510;28;20268;-69
2022/12/12 11:58:26;;;;;;;21.83;14.67;;;;;;;;;;5056365;28;20420;-69
2022/12/12 12:00:52;;;;;;;21.97;14.73;;;;;;;;;;5056167;28;20443;-69
2022/12/12 12:03:21;;;;;;;22.83;15.17;;;;;;;;;;5055921;28;20468;-69
2022/12/12 12:05:51;;;;;;;26.20;15.80;;;;;;;;;;5056705;28;20254;-69
2022/12/12 12:08:17;;;;;;;21.70;14.57;;;;;;;;;;5056516;28;20412;-69
2022/12/12 12:10:43;;;;;;;21.10;14.73;;;;;;;;;;5055986;28;20405;-69
2022/12/12 12:13:09;;;;;;;24.50;14.37;;;;;;;;;;5056231;28;20622;-69
2022/12/12 12:15:41;;;;;;;21.13;15.20;;;;;;;;;;5056004;28;20653;-69
2022/12/12 12:18:10;;;;;;;23.50;14.10;;;;;;;;;;5056059;28;20921;-70
2022/12/12 12:20:52;;;;;;;21.63;15.13;;;;;;;;;;5037898;28;20417;-69
2022/12/12 12:23:27;;;;;;;19.70;14.67;;;;;;;;;;5037868;28;20472;-69
2022/12/12 12:25:59;;;;;;;19.70;13.03;;;;;;;;;;5037990;28;20452;-69
2022/12/12 12:28:33;;;;;;;22.30;14.27;;;;;;;;;;5038068;28;20409;-70
2022/12/12 12:30:59;;;;;;;24.23;15.50;;;;;;;;;;5037873;28;20178;-69
2022/12/12 12:33:54;;;;;;;25.53;15.20;;;;;;;;;;5037746;28;20536;-69
2022/12/12 12:36:22;;;;;;;22.50;14.47;;;;;;;;;;5025268;28;20281;-69
2022/12/12 12:38:57;;;;;;;22.33;14.57;;;;;;;;;;5055399;28;20405;-69
2022/12/12 12:41:34;;;;;;;23.00;14.90;;;;;;;;;;5055392;28;20904;-69
2022/12/12 12:44:23;;;;;;;27.90;15.10;;;;;;;;;;5055189;28;20916;-69
2022/12/12 12:46:56;;;;;;;27.60;15.13;;;;;;;;;;5055276;28;20390;-69
2022/12/12 12:49:40;;;;;;;24.37;14.37;;;;;;;;;;5055794;28;20421;-69
2022/12/12 12:52:11;;;;;;;22.97;13.80;;;;;;;;;;5037352;28;20492;-68
2022/12/12 12:54:41;;;;;;;24.10;14.10;;;;;;;;;;5055307;28;20436;-69
2022/12/12 12:57:07;;;;;;;20.13;13.67;;;;;;;;;;5055176;28;20178;-68
2022/12/12 12:59:38;;;;;;;20.80;13.60;;;;;;;;;;5037361;28;20183;-68
2022/12/12 13:02:11;;;;;;;19.43;13.50;;;;;;;;;;5037207;28;20210;-70
2022/12/12 13:04:45;;;;;;;24.57;13.00;;;;;;;;;;5055271;28;20444;-68
2022/12/12 13:07:15;;;;;;;23.43;13.60;;;;;;;;;;5055631;28;20397;-68
2022/12/12 13:09:50;;;;;;;24.53;14.03;;;;;;;;;;5055081;28;20764;-68
2022/12/12 13:12:35;;;;;;;23.93;14.40;;;;;;;;;;5037347;28;20189;-68
2022/12/12 13:15:06;;;;;;;18.93;14.23;;;;;;;;;;5055232;28;20570;-69
2022/12/12 13:17:41;;;;;;;25.00;14.60;;;;;;;;;;5037195;28;20455;-68
2022/12/12 13:20:12;;;;;;;20.40;13.93;;;;;;;;;;5056364;28;20178;-68
2022/12/12 13:22:48;;;;;;;23.73;15.10;;;;;;;;;;5041710;28;20452;-68
2022/12/12 13:25:18;;;;;;;23.20;14.17;;;;;;;;;;5077471;28;20194;-70
2022/12/12 13:27:48;;;;;;;21.37;13.67;;;;;;;;;;5077032;28;20143;-69
2022/12/12 13:30:19;;;;;;;20.60;13.83;;;;;;;;;;5075778;28;20409;-69
2022/12/12 13:32:48;;;;;;;24.63;14.27;;;;;;;;;;5046266;28;20469;-69
2022/12/12 13:35:17;;;;;;;26.63;13.93;;;;;;;;;;5037137;28;20217;-68
2022/12/12 13:37:48;;;;;;;22.73;14.37;;;;;;;;;;5036576;28;20182;-68
2022/12/12 13:40:22;;;;;;;26.17;14.23;;;;;;;;;;5036361;28;20332;-68
2022/12/12 13:42:56;;;;;;;23.20;14.93;;;;;;;;;;5054369;28;20569;-68
2022/12/12 13:45:34;;;;;;;25.00;14.13;;;;;;;;;;5054264;28;20234;-68
2022/12/12 13:48:02;;;;;;;23.57;14.33;;;;;;;;;;5036779;28;20564;-68
2022/12/12 13:50:29;;;;;;;22.60;15.00;;;;;;;;;;5054196;28;20651;-68
2022/12/12 13:53:07;;;;;;;25.97;16.90;;;;;;;;;;5036291;28;20413;-69
2022/12/12 13:55:37;;;;;;;24.87;15.00;;;;;;;;;;5036497;28;20189;-69
2022/12/12 13:58:05;;;;;;;25.37;16.13;;;;;;;;;;5053687;28;20393;-70
2022/12/12 14:00:31;;;;;;;28.10;16.70;;;;;;;;;;5054041;28;20178;-69
2022/12/12 14:03:00;;;;;;;25.00;16.80;;;;;;;;;;5053926;28;20467;-69
2022/12/12 14:05:31;;;;;;;27.27;15.83;;;;;;;;;;5036228;28;20243;-69
2022/12/12 14:08:01;;;;;;;23.30;14.83;;;;;;;;;;5036578;28;20417;-69
2022/12/12 14:10:32;;;;;;;24.17;14.87;;;;;;;;;;5054228;28;20266;-69
2022/12/12 14:13:14;;;;;;;26.50;14.60;;;;;;;;;;5054339;28;20546;-70
2022/12/12 14:15:41;;;;;;;22.57;14.63;;;;;;;;;;5036045;28;20236;-68
2022/12/12 14:18:15;;;;;;;23.00;15.67;;;;;;;;;;5054508;28;20243;-69
2022/12/12 14:20:42;;;;;;;27.73;16.03;;;;;;;;;;5054914;28;20408;-69
2022/12/12 14:23:21;;;;;;;21.83;14.47;;;;;;;;;;5055547;28;20470;-69
2022/12/12 14:25:47;;;;;;;22.60;14.63;;;;;;;;;;5061716;28;20393;-69
2022/12/12 14:28:20;;;;;;;27.27;13.57;;;;;;;;;;5062278;28;20406;-69
2022/12/12 14:30:58;;;;;;;27.80;14.80;;;;;;;;;;5061668;28;20239;-69
2022/12/12 14:33:42;;;;;;;27.67;15.20;;;;;;;;;;5036157;28;20448;-69
2022/12/12 14:36:28;;;;;;;22.13;14.50;;;;;;;;;;5054338;28;20457;-70
2022/12/12 14:38:57;;;;;;;27.23;15.60;;;;;;;;;;5023386;28;20429;-69
2022/12/12 14:41:27;;;;;;;20.47;14.50;;;;;;;;;;5035979;28;20421;-69